createdAt,value
2022-08-26T00:01:54.951Z,11.80
2022-08-26T00:04:23.838Z,11.60
2022-08-26T00:06:51.497Z,11.90
2022-08-26T00:09:18.708Z,12.00
2022-08-26T00:11:45.927Z,11.50
2022-08-26T00:14:14.154Z,11.90
2022-08-26T00:16:47.144Z,11.90
2022-08-26T00:19:20.244Z,11.20
2022-08-26T00:21:48.674Z,10.80
2022-08-26T00:24:18.295Z,10.20
2022-08-26T00:26:45.063Z,10.70
2022-08-26T00:29:12.773Z,11.00
2022-08-26T00:31:40.789Z,11.00
2022-08-26T00:34:09.606Z,11.30
2022-08-26T00:36:40.689Z,11.70
2022-08-26T00:39:08.435Z,12.10
2022-08-26T00:41:38.261Z,12.70
2022-08-26T00:44:06.825Z,12.80
2022-08-26T00:46:46.969Z,13.10
2022-08-26T00:49:19.905Z,13.00
2022-08-26T00:51:52.569Z,13.40
2022-08-26T00:54:24.262Z,12.00
2022-08-26T00:57:02.758Z,12.60
2022-08-26T00:59:32.760Z,12.60
2022-08-26T01:02:02.752Z,13.00
2022-08-26T01:04:32.042Z,12.20
2022-08-26T01:06:58.997Z,12.60
2022-08-26T01:09:27.238Z,12.60
2022-08-26T01:11:58.266Z,11.60
2022-08-26T01:14:30.131Z,12.10
2022-08-26T01:16:56.883Z,12.40
2022-08-26T01:19:31.971Z,12.10
2022-08-26T01:22:40.210Z,11.60
2022-08-26T01:25:08.283Z,12.00
2022-08-26T01:27:35.553Z,11.10
2022-08-26T01:30:05.291Z,11.10
2022-08-26T01:32:33.647Z,11.90
2022-08-26T01:35:01.159Z,10.90
2022-08-26T01:37:34.207Z,10.90
2022-08-26T01:40:01.201Z,11.00
2022-08-26T01:42:28.698Z,11.50
2022-08-26T01:45:05.557Z,10.90
2022-08-26T01:47:35.227Z,11.70
2022-08-26T01:50:07.069Z,11.50
2022-08-26T01:52:38.604Z,11.90
2022-08-26T01:55:06.839Z,11.70
2022-08-26T01:57:34.739Z,12.20
2022-08-26T02:00:09.641Z,12.00
2022-08-26T02:02:37.360Z,10.00
2022-08-26T02:05:07.503Z,11.20
2022-08-26T02:07:34.532Z,10.90
2022-08-26T02:10:01.272Z,11.90
2022-08-26T02:12:28.470Z,11.40
2022-08-26T02:15:00.165Z,11.60
2022-08-26T02:17:43.580Z,10.90
2022-08-26T02:20:14.927Z,12.60
2022-08-26T02:22:43.121Z,11.50
2022-08-26T02:25:25.560Z,12.30
2022-08-26T02:27:53.433Z,11.80
2022-08-26T02:30:32.282Z,11.30
2022-08-26T02:33:03.989Z,11.70
2022-08-26T02:35:34.897Z,12.10
2022-08-26T02:38:03.054Z,12.20
2022-08-26T02:40:41.165Z,12.50
2022-08-26T02:43:09.752Z,13.00
2022-08-26T02:45:37.542Z,12.50
2022-08-26T02:48:16.628Z,13.00
2022-08-26T02:50:45.969Z,13.30
2022-08-26T02:53:13.556Z,12.90
2022-08-26T02:55:41.109Z,12.40
2022-08-26T02:58:09.759Z,12.70
2022-08-26T03:00:38.779Z,10.90
2022-08-26T03:03:23.468Z,10.70
2022-08-26T03:05:51.412Z,11.60
2022-08-26T03:08:18.892Z,11.70
2022-08-26T03:10:48.128Z,12.40
2022-08-26T03:13:16.329Z,12.30
2022-08-26T03:15:44.273Z,12.50
2022-08-26T03:18:13.513Z,12.50
2022-08-26T03:20:40.203Z,12.40
2022-08-26T03:23:07.889Z,12.60
2022-08-26T03:25:35.932Z,12.20
2022-08-26T03:28:03.578Z,13.10
2022-08-26T03:30:45.220Z,11.70
2022-08-26T03:33:13.484Z,11.80
2022-08-26T03:35:42.130Z,11.10
2022-08-26T03:38:09.705Z,11.30
2022-08-26T03:40:37.973Z,11.70
2022-08-26T03:43:09.602Z,11.20
2022-08-26T03:45:37.347Z,11.60
2022-08-26T03:48:05.423Z,11.80
2022-08-26T03:50:34.214Z,11.80
2022-08-26T03:53:04.260Z,12.40
2022-08-26T03:55:34.180Z,12.20
2022-08-26T03:58:02.296Z,12.80
2022-08-26T04:00:29.776Z,12.90
2022-08-26T04:02:56.628Z,12.50
2022-08-26T04:05:24.277Z,11.30
2022-08-26T04:07:51.669Z,11.80
2022-08-26T04:10:28.430Z,13.00
2022-08-26T04:12:55.838Z,12.20
2022-08-26T04:15:27.275Z,12.90
2022-08-26T04:17:55.974Z,12.60
2022-08-26T04:20:24.935Z,13.10
2022-08-26T04:22:52.190Z,14.00
2022-08-26T04:25:19.093Z,14.70
2022-08-26T04:27:48.239Z,13.40
2022-08-26T04:30:16.812Z,12.60
2022-08-26T04:32:44.238Z,12.30
2022-08-26T04:35:11.405Z,13.10
2022-08-26T04:37:38.632Z,14.90
2022-08-26T04:40:07.713Z,14.80
2022-08-26T04:42:35.571Z,14.00
2022-08-26T04:45:05.632Z,15.00
2022-08-26T04:47:32.703Z,15.20
2022-08-26T04:50:00.176Z,15.70
2022-08-26T04:52:29.088Z,16.80
2022-08-26T04:54:57.911Z,15.90
2022-08-26T04:57:24.674Z,16.30
2022-08-26T04:59:51.347Z,14.40
2022-08-26T05:02:18.212Z,16.40
2022-08-26T05:04:45.782Z,16.70
2022-08-26T05:07:13.073Z,17.20
2022-08-26T05:09:40.980Z,17.00
2022-08-26T05:12:09.613Z,18.00
2022-08-26T05:14:36.328Z,16.80
2022-08-26T05:17:03.734Z,15.60
2022-08-26T05:19:31.718Z,15.70
2022-08-26T05:21:59.856Z,14.90
2022-08-26T05:24:26.581Z,13.00
2022-08-26T05:26:54.242Z,14.30
2022-08-26T05:29:23.402Z,14.90
2022-08-26T05:31:53.627Z,15.40
2022-08-26T05:34:23.445Z,15.30
2022-08-26T05:36:52.737Z,16.10
2022-08-26T05:39:20.128Z,16.10
2022-08-26T05:41:47.805Z,15.70
2022-08-26T05:44:17.765Z,15.90
2022-08-26T05:46:46.052Z,14.80
2022-08-26T05:49:16.020Z,14.70
2022-08-26T05:51:47.544Z,14.10
2022-08-26T05:54:21.906Z,14.60
2022-08-26T05:56:50.966Z,17.00
2022-08-26T05:59:21.283Z,17.40
2022-08-26T06:01:51.306Z,18.20
2022-08-26T06:04:18.071Z,18.00
2022-08-26T06:06:47.375Z,16.90
2022-08-26T06:09:14.354Z,17.20
2022-08-26T06:11:44.376Z,15.80
2022-08-26T06:14:11.241Z,14.30
2022-08-26T06:16:41.298Z,13.70
2022-08-26T06:19:10.538Z,13.30
2022-08-26T06:21:41.313Z,14.00
2022-08-26T06:24:30.441Z,13.80
2022-08-26T06:27:01.625Z,14.90
2022-08-26T06:29:36.101Z,14.70
2022-08-26T06:32:04.986Z,14.60
2022-08-26T06:34:31.799Z,15.30
2022-08-26T06:37:02.614Z,14.00
2022-08-26T06:39:31.780Z,12.30
2022-08-26T06:42:00.500Z,13.60
2022-08-26T06:44:27.678Z,13.70
2022-08-26T06:46:55.122Z,14.40
2022-08-26T06:49:26.771Z,14.40
2022-08-26T06:51:59.702Z,14.30
2022-08-26T06:54:30.844Z,14.60
2022-08-26T06:56:57.761Z,14.60
2022-08-26T06:59:25.848Z,14.20
2022-08-26T07:01:53.522Z,11.90
2022-08-26T07:04:22.354Z,12.10
2022-08-26T07:06:53.372Z,13.20
2022-08-26T07:09:26.848Z,13.90
2022-08-26T07:11:58.591Z,12.90
2022-08-26T07:14:26.408Z,13.20
2022-08-26T07:16:54.072Z,12.30
2022-08-26T07:19:30.565Z,14.20
2022-08-26T07:22:03.882Z,13.70
2022-08-26T07:24:33.279Z,12.80
2022-08-26T07:27:06.871Z,11.50
2022-08-26T07:29:37.813Z,11.70
2022-08-26T07:32:06.520Z,13.20
2022-08-26T07:34:33.622Z,12.50
2022-08-26T07:37:01.405Z,12.80
2022-08-26T07:39:31.637Z,11.90
2022-08-26T07:42:01.925Z,12.00
2022-08-26T07:44:35.450Z,12.10
2022-08-26T07:47:02.360Z,12.70
2022-08-26T07:49:29.968Z,11.70
2022-08-26T07:51:57.054Z,11.10
2022-08-26T07:54:24.736Z,11.60
2022-08-26T07:56:54.466Z,11.10
2022-08-26T07:59:23.398Z,11.50
2022-08-26T08:01:50.322Z,12.20
2022-08-26T08:04:21.880Z,12.30
2022-08-26T08:06:53.616Z,12.10
2022-08-26T08:09:20.552Z,11.50
2022-08-26T08:11:50.067Z,11.50
2022-08-26T08:14:22.369Z,10.80
2022-08-26T08:16:51.275Z,10.90
2022-08-26T08:19:22.099Z,11.40
2022-08-26T08:21:49.335Z,10.90
2022-08-26T08:24:16.539Z,9.20
2022-08-26T08:26:43.980Z,11.10
2022-08-26T08:29:10.789Z,10.50
2022-08-26T08:31:56.640Z,10.30
2022-08-26T08:34:26.260Z,10.00
2022-08-26T08:36:54.193Z,9.80
2022-08-26T08:39:22.439Z,9.80
2022-08-26T08:42:07.617Z,9.90
2022-08-26T08:44:41.171Z,9.10
2022-08-26T08:47:31.375Z,8.90
2022-08-26T08:50:05.636Z,8.40
2022-08-26T08:52:37.719Z,8.30
2022-08-26T08:55:11.151Z,8.00
2022-08-26T08:58:02.444Z,7.30
2022-08-26T09:00:39.777Z,7.60
2022-08-26T09:03:27.722Z,7.30
2022-08-26T09:05:58.961Z,7.80
2022-08-26T09:08:30.337Z,7.60
2022-08-26T09:11:00.590Z,6.80
2022-08-26T09:13:29.242Z,6.10
2022-08-26T09:16:19.088Z,7.00
2022-08-26T09:19:10.959Z,7.40
2022-08-26T09:21:38.389Z,8.30
2022-08-26T09:24:07.159Z,7.80
2022-08-26T09:26:39.978Z,7.70
2022-08-26T09:29:15.960Z,7.50
2022-08-26T09:31:42.814Z,7.70
2022-08-26T09:34:12.595Z,6.80
2022-08-26T09:36:51.479Z,6.90
2022-08-26T09:39:24.101Z,6.30
2022-08-26T09:42:11.826Z,6.50
2022-08-26T09:44:53.887Z,6.60
2022-08-26T09:47:26.749Z,7.50
2022-08-26T09:50:28.818Z,6.80
2022-08-26T09:53:28.500Z,8.20
2022-08-26T09:56:28.504Z,8.20
2022-08-26T09:58:56.892Z,7.20
2022-08-26T10:01:23.529Z,7.40
2022-08-26T10:03:51.491Z,6.90
2022-08-26T10:06:20.986Z,6.20
2022-08-26T10:08:52.490Z,6.00
2022-08-26T10:11:33.100Z,6.10
2022-08-26T10:14:11.653Z,5.20
2022-08-26T10:16:50.781Z,4.20
2022-08-26T10:19:25.454Z,4.80
2022-08-26T10:22:18.007Z,5.00
2022-08-26T10:24:51.921Z,5.10
2022-08-26T10:27:34.929Z,4.30
2022-08-26T10:30:10.529Z,4.20
2022-08-26T10:32:41.280Z,4.60
2022-08-26T10:35:13.557Z,3.60
2022-08-26T10:37:54.431Z,4.10
2022-08-26T10:40:53.475Z,3.40
2022-08-26T10:43:28.583Z,3.50
2022-08-26T10:46:03.517Z,3.90
2022-08-26T10:48:48.156Z,4.00
2022-08-26T10:51:20.082Z,4.00
2022-08-26T10:53:55.953Z,3.80
2022-08-26T10:56:41.337Z,4.10
2022-08-26T10:59:52.778Z,4.60
2022-08-26T11:02:33.103Z,4.50
2022-08-26T11:05:06.088Z,3.50
2022-08-26T11:07:47.676Z,4.00
2022-08-26T11:10:19.356Z,4.30
2022-08-26T11:12:49.139Z,5.30
2022-08-26T11:15:26.732Z,5.50
2022-08-26T11:18:03.202Z,5.40
2022-08-26T11:20:42.250Z,4.90
2022-08-26T11:23:22.535Z,4.70
2022-08-26T11:26:01.390Z,5.20
2022-08-26T11:28:38.341Z,5.10
2022-08-26T11:31:10.212Z,5.90
2022-08-26T11:34:03.266Z,4.40
2022-08-26T11:36:42.307Z,5.50
2022-08-26T11:39:25.763Z,5.70
2022-08-26T11:41:55.869Z,5.00
2022-08-26T11:44:38.012Z,5.10
2022-08-26T11:47:05.901Z,5.10
2022-08-26T11:49:39.038Z,5.00
2022-08-26T11:52:26.657Z,5.00
2022-08-26T11:55:00.747Z,4.60
2022-08-26T11:57:28.967Z,8.80
2022-08-26T11:59:56.927Z,3.80
2022-08-26T12:02:25.050Z,3.70
2022-08-26T12:04:54.920Z,3.90
2022-08-26T12:07:28.854Z,4.20
2022-08-26T14:17:33.119Z,4.00
2022-08-26T14:19:59.997Z,4.20
2022-08-26T14:22:26.815Z,4.10
2022-08-26T14:24:54.222Z,4.10
2022-08-26T14:27:21.060Z,4.20
2022-08-26T14:29:47.987Z,4.20
2022-08-26T14:32:24.998Z,3.80
2022-08-26T14:34:52.283Z,3.90
2022-08-26T14:37:19.795Z,3.40
2022-08-26T14:39:47.154Z,3.60
2022-08-26T14:42:17.975Z,4.00
2022-08-26T14:44:48.823Z,4.10
2022-08-26T14:47:15.686Z,3.60
2022-08-26T14:49:42.704Z,3.80
2022-08-26T14:52:09.637Z,3.40
2022-08-26T14:54:37.553Z,3.30
2022-08-26T14:57:08.118Z,3.30
2022-08-26T14:59:43.418Z,3.90
2022-08-26T15:02:22.214Z,4.10
2022-08-26T15:05:01.646Z,3.70
2022-08-26T15:07:28.450Z,3.80
2022-08-26T15:09:55.276Z,3.70
2022-08-26T15:12:22.213Z,4.70
2022-08-26T15:14:49.056Z,4.90
2022-08-26T15:17:15.966Z,4.50
2022-08-26T15:19:42.896Z,4.00
2022-08-26T15:22:09.837Z,4.20
2022-08-26T15:24:36.775Z,3.70
2022-08-26T15:27:03.814Z,3.40
2022-08-26T15:29:30.687Z,3.90
2022-08-26T15:32:01.572Z,3.60
2022-08-26T15:34:28.447Z,3.50
2022-08-26T15:37:07.354Z,3.70
2022-08-26T15:39:34.751Z,4.00
2022-08-26T15:42:02.427Z,3.70
2022-08-26T15:44:29.260Z,3.90
2022-08-26T15:46:58.677Z,3.70
2022-08-26T15:49:26.556Z,4.00
2022-08-26T15:51:53.415Z,4.00
2022-08-26T15:54:22.740Z,4.10
2022-08-26T15:56:52.751Z,4.20
2022-08-26T15:59:21.835Z,4.60
2022-08-26T16:01:48.888Z,4.30
2022-08-26T16:04:15.805Z,4.30
2022-08-26T16:06:43.714Z,4.60
2022-08-26T16:09:11.574Z,4.30
2022-08-26T16:11:38.482Z,6.60
2022-08-26T16:14:08.452Z,5.00
2022-08-26T16:16:40.002Z,4.80
2022-08-26T16:19:08.536Z,4.80
2022-08-26T16:21:35.592Z,4.70
2022-08-26T16:24:03.613Z,4.30
2022-08-26T16:26:33.216Z,3.80
2022-08-26T16:29:08.756Z,4.40
2022-08-26T16:31:38.220Z,4.00
2022-08-26T16:34:06.622Z,4.20
2022-08-26T16:36:34.834Z,4.80
2022-08-26T16:39:02.069Z,4.70
2022-08-26T16:41:31.438Z,5.00
2022-08-26T16:43:59.154Z,4.40
2022-08-26T16:46:27.859Z,4.30
2022-08-26T16:48:56.507Z,4.40
2022-08-26T16:51:27.356Z,4.90
2022-08-26T16:53:56.436Z,8.00
2022-08-26T16:56:30.584Z,8.70
2022-08-26T16:59:01.037Z,9.60
2022-08-26T17:01:28.025Z,6.50
2022-08-26T17:03:54.977Z,5.90
2022-08-26T17:06:21.829Z,5.50
2022-08-26T17:08:48.731Z,5.60
2022-08-26T17:11:15.737Z,6.30
2022-08-26T17:13:43.072Z,5.60
2022-08-26T17:16:11.957Z,6.80
2022-08-26T17:18:38.918Z,6.00
2022-08-26T17:21:12.137Z,5.70
2022-08-26T17:23:41.207Z,5.30
2022-08-26T17:26:09.277Z,5.20
2022-08-26T17:28:36.207Z,5.60
2022-08-26T17:31:04.752Z,5.00
2022-08-26T17:33:31.983Z,5.70
2022-08-26T17:35:59.789Z,5.70
2022-08-26T17:38:28.004Z,5.30
2022-08-26T17:40:56.542Z,7.50
2022-08-26T17:43:24.432Z,5.70
2022-08-26T17:45:51.568Z,5.30
2022-08-26T17:48:18.460Z,5.60
2022-08-26T17:50:49.296Z,6.00
2022-08-26T17:53:18.835Z,6.20
2022-08-26T17:55:47.527Z,5.90
2022-08-26T17:58:16.275Z,5.60
2022-08-26T18:00:50.080Z,5.60
2022-08-26T18:03:18.653Z,5.50
2022-08-26T18:05:53.340Z,5.20
2022-08-26T18:08:21.157Z,5.30
2022-08-26T18:10:48.020Z,5.60
2022-08-26T18:13:15.905Z,6.00
2022-08-26T18:15:46.746Z,5.40
2022-08-26T18:18:14.943Z,5.60
2022-08-26T18:20:44.313Z,6.00
2022-08-26T18:23:12.458Z,4.90
2022-08-26T18:25:43.395Z,5.60
2022-08-26T18:28:10.702Z,5.00
2022-08-26T18:30:37.987Z,5.00
2022-08-26T18:33:04.957Z,4.90
2022-08-26T18:35:31.942Z,5.40
2022-08-26T18:38:01.321Z,4.90
2022-08-26T18:40:40.169Z,5.50
2022-08-26T18:43:07.042Z,5.20
2022-08-26T18:45:34.770Z,5.00
2022-08-26T18:48:03.005Z,5.10
2022-08-26T18:50:29.889Z,5.80
2022-08-26T18:52:56.671Z,5.10
2022-08-26T18:55:23.837Z,4.90
2022-08-26T18:57:51.452Z,5.30
2022-08-26T19:00:18.461Z,5.40
2022-08-26T19:02:47.022Z,5.30
2022-08-26T19:05:20.021Z,5.50
2022-08-26T19:07:47.952Z,5.20
2022-08-26T19:10:15.066Z,5.60
2022-08-26T19:12:42.503Z,5.90
2022-08-26T19:15:11.557Z,5.20
2022-08-26T19:17:38.480Z,5.20
2022-08-26T19:20:06.310Z,4.80
2022-08-26T19:22:33.421Z,5.00
2022-08-26T19:25:01.537Z,5.30
2022-08-26T19:27:28.372Z,5.80
2022-08-26T19:29:56.582Z,5.30
2022-08-26T19:32:24.546Z,5.70
2022-08-26T19:34:52.587Z,5.80
2022-08-26T19:37:20.731Z,5.30
2022-08-26T19:39:48.561Z,5.10
2022-08-26T19:42:16.751Z,4.90
2022-08-26T19:45:02.314Z,5.90
2022-08-26T19:47:29.192Z,5.70
2022-08-26T19:49:56.963Z,4.90
2022-08-26T19:52:30.091Z,5.10
2022-08-26T19:54:58.565Z,5.90
2022-08-26T19:57:25.484Z,5.60
2022-08-26T19:59:52.289Z,5.90
2022-08-26T20:02:19.917Z,5.50
2022-08-26T20:04:47.066Z,6.20
2022-08-26T20:07:18.067Z,6.70
2022-08-26T20:09:47.103Z,6.10
2022-08-26T20:12:15.298Z,6.10
2022-08-26T20:14:42.511Z,6.30
2022-08-26T20:17:09.377Z,6.70
2022-08-26T20:19:54.982Z,6.40
2022-08-26T20:22:22.304Z,6.90
2022-08-26T20:24:50.355Z,6.50
2022-08-26T20:27:17.125Z,6.80
2022-08-26T20:29:44.281Z,6.50
2022-08-26T20:32:12.160Z,7.70
2022-08-26T20:34:39.832Z,7.10
2022-08-26T20:37:08.625Z,7.00
2022-08-26T20:39:36.241Z,6.80
2022-08-26T20:42:03.484Z,6.90
2022-08-26T20:44:30.484Z,7.10
2022-08-26T20:46:59.379Z,7.10
2022-08-26T20:49:28.416Z,6.60
2022-08-26T20:51:55.645Z,6.30
2022-08-26T20:54:28.138Z,6.20
2022-08-26T20:56:57.639Z,7.20
2022-08-26T20:59:25.980Z,7.30
2022-08-26T21:01:53.271Z,6.80
2022-08-26T21:04:23.868Z,6.40
2022-08-26T21:06:52.749Z,6.90
2022-08-26T21:09:22.322Z,7.00
2022-08-26T21:11:50.136Z,6.80
2022-08-26T21:14:17.560Z,7.30
2022-08-26T21:16:45.566Z,7.20
2022-08-26T21:19:14.732Z,7.10
2022-08-26T21:21:42.232Z,6.70
2022-08-26T21:24:10.277Z,6.70
2022-08-26T21:26:37.526Z,6.20
2022-08-26T21:29:05.409Z,6.40
2022-08-26T21:31:32.404Z,6.40
2022-08-26T21:33:59.971Z,6.40
2022-08-26T21:36:27.109Z,6.50
2022-08-26T21:38:59.632Z,6.80
2022-08-26T21:41:27.663Z,6.90
2022-08-26T21:44:01.375Z,7.20
2022-08-26T21:46:30.371Z,7.10
2022-08-26T21:49:01.943Z,6.90
2022-08-26T21:51:33.214Z,6.70
2022-08-26T21:54:01.319Z,6.40
2022-08-26T21:56:31.535Z,7.20
2022-08-26T21:59:00.145Z,6.70
2022-08-26T22:01:32.093Z,6.50
2022-08-26T22:03:59.169Z,6.90
2022-08-26T22:06:28.510Z,7.00
2022-08-26T22:08:56.543Z,6.90
2022-08-26T22:11:25.476Z,7.30
2022-08-26T22:13:52.860Z,6.80
2022-08-26T22:16:19.850Z,7.10
2022-08-26T22:18:47.053Z,6.60
2022-08-26T22:21:20.196Z,7.20
2022-08-26T22:23:47.738Z,7.00
2022-08-26T22:26:25.597Z,6.80
2022-08-26T22:28:57.467Z,6.70
2022-08-26T22:31:37.176Z,6.50
2022-08-26T22:34:07.683Z,6.60
2022-08-26T22:36:34.513Z,6.80
2022-08-26T22:39:01.337Z,7.10
2022-08-26T22:41:28.164Z,6.80
2022-08-26T22:43:54.936Z,6.20
2022-08-26T22:46:25.234Z,6.70
2022-08-26T22:48:54.289Z,6.50
2022-08-26T22:51:22.178Z,6.60
2022-08-26T22:53:49.250Z,7.40
2022-08-26T22:56:18.557Z,6.70
2022-08-26T22:58:47.478Z,6.80
2022-08-26T23:01:15.658Z,7.20
2022-08-26T23:03:43.160Z,6.80
2022-08-26T23:06:10.793Z,7.30
2022-08-26T23:08:39.554Z,6.40
2022-08-26T23:11:11.424Z,7.40
2022-08-26T23:13:39.245Z,7.10
2022-08-26T23:16:11.060Z,6.70
2022-08-26T23:18:38.677Z,7.10
2022-08-26T23:21:06.163Z,7.50
2022-08-26T23:23:33.076Z,7.30
2022-08-26T23:26:03.259Z,6.80
2022-08-26T23:28:32.757Z,7.20
2022-08-26T23:31:00.335Z,6.80
2022-08-26T23:33:47.285Z,6.60
2022-08-26T23:36:17.679Z,7.00
2022-08-26T23:38:52.985Z,7.40
2022-08-26T23:41:22.361Z,7.00
2022-08-26T23:43:49.731Z,7.20
2022-08-26T23:46:16.442Z,7.20
2022-08-26T23:48:43.407Z,7.30
2022-08-26T23:51:29.054Z,7.00
2022-08-26T23:53:56.329Z,6.20
2022-08-26T23:56:23.174Z,6.50
2022-08-26T23:58:49.851Z,6.60
